sensor_id;sensor_type;location;lat;lon;timestamp;P1;durP1;ratioP1;P2;durP2;ratioP2
78848;SDS011;68197;41.864;21.942;2023-04-05T00:01:16;6.05;;;5.45;;
78848;SDS011;68197;41.864;21.942;2023-04-05T00:03:44;6.75;;;5.15;;
78848;SDS011;68197;41.864;21.942;2023-04-05T00:06:11;5.50;;;4.88;;
78848;SDS011;68197;41.864;21.942;2023-04-05T00:08:37;6.30;;;5.15;;
78848;SDS011;68197;41.864;21.942;2023-04-05T00:11:04;7.30;;;5.93;;
78848;SDS011;68197;41.864;21.942;2023-04-05T00:13:30;5.82;;;4.93;;
78848;SDS011;68197;41.864;21.942;2023-04-05T00:15:56;6.05;;;5.05;;
78848;SDS011;68197;41.864;21.942;2023-04-05T00:20:51;6.53;;;4.35;;
78848;SDS011;68197;41.864;21.942;2023-04-05T00:23:17;5.75;;;4.53;;
78848;SDS011;68197;41.864;21.942;2023-04-05T00:25:45;6.30;;;5.43;;
78848;SDS011;68197;41.864;21.942;2023-04-05T00:28:11;6.40;;;4.70;;
78848;SDS011;68197;41.864;21.942;2023-04-05T00:30:37;4.97;;;4.47;;
78848;SDS011;68197;41.864;21.942;2023-04-05T00:33:04;6.50;;;5.80;;
78848;SDS011;68197;41.864;21.942;2023-04-05T00:35:30;5.65;;;4.63;;
78848;SDS011;68197;41.864;21.942;2023-04-05T00:37:56;5.53;;;4.45;;
78848;SDS011;68197;41.864;21.942;2023-04-05T00:40:22;6.22;;;5.35;;
78848;SDS011;68197;41.864;21.942;2023-04-05T00:42:48;5.78;;;4.68;;
78848;SDS011;68197;41.864;21.942;2023-04-05T00:45:15;6.20;;;5.53;;
78848;SDS011;68197;41.864;21.942;2023-04-05T00:47:41;5.65;;;4.75;;
78848;SDS011;68197;41.864;21.942;2023-04-05T00:50:07;5.82;;;5.18;;
78848;SDS011;68197;41.864;21.942;2023-04-05T00:52:34;5.70;;;4.30;;
78848;SDS011;68197;41.864;21.942;2023-04-05T00:55:02;8.48;;;7.78;;
78848;SDS011;68197;41.864;21.942;2023-04-05T00:57:31;6.10;;;5.10;;
78848;SDS011;68197;41.864;21.942;2023-04-05T00:59:58;5.90;;;4.65;;
78848;SDS011;68197;41.864;21.942;2023-04-05T01:02:30;9.30;;;8.40;;
78848;SDS011;68197;41.864;21.942;2023-04-05T01:04:58;5.93;;;5.00;;
78848;SDS011;68197;41.864;21.942;2023-04-05T01:07:30;6.90;;;5.88;;
78848;SDS011;68197;41.864;21.942;2023-04-05T01:09:59;6.80;;;5.78;;
78848;SDS011;68197;41.864;21.942;2023-04-05T01:12:29;6.70;;;5.30;;
78848;SDS011;68197;41.864;21.942;2023-04-05T01:14:57;7.50;;;5.47;;
78848;SDS011;68197;41.864;21.942;2023-04-05T01:17:24;6.45;;;5.18;;
78848;SDS011;68197;41.864;21.942;2023-04-05T01:19:56;5.50;;;4.70;;
78848;SDS011;68197;41.864;21.942;2023-04-05T01:30:34;7.03;;;5.57;;
78848;SDS011;68197;41.864;21.942;2023-04-05T01:38:00;7.57;;;5.63;;
78848;SDS011;68197;41.864;21.942;2023-04-05T01:40:27;7.20;;;5.80;;
78848;SDS011;68197;41.864;21.942;2023-04-05T01:42:53;7.28;;;5.72;;
78848;SDS011;68197;41.864;21.942;2023-04-05T01:45:20;7.88;;;6.18;;
78848;SDS011;68197;41.864;21.942;2023-04-05T01:47:46;6.15;;;5.15;;
78848;SDS011;68197;41.864;21.942;2023-04-05T01:50:12;7.88;;;5.78;;
78848;SDS011;68197;41.864;21.942;2023-04-05T01:52:38;9.02;;;5.70;;
78848;SDS011;68197;41.864;21.942;2023-04-05T01:55:04;8.02;;;7.32;;
78848;SDS011;68197;41.864;21.942;2023-04-05T01:57:30;6.18;;;5.30;;
78848;SDS011;68197;41.864;21.942;2023-04-05T01:59:56;7.95;;;5.38;;
78848;SDS011;68197;41.864;21.942;2023-04-05T02:02:22;6.93;;;5.55;;
78848;SDS011;68197;41.864;21.942;2023-04-05T02:04:48;6.88;;;5.95;;
78848;SDS011;68197;41.864;21.942;2023-04-05T02:07:15;7.50;;;5.78;;
78848;SDS011;68197;41.864;21.942;2023-04-05T02:09:41;5.65;;;4.90;;
78848;SDS011;68197;41.864;21.942;2023-04-05T02:12:07;7.75;;;5.78;;
78848;SDS011;68197;41.864;21.942;2023-04-05T02:14:33;7.60;;;5.28;;
78848;SDS011;68197;41.864;21.942;2023-04-05T02:16:59;6.60;;;5.45;;
78848;SDS011;68197;41.864;21.942;2023-04-05T02:19:27;7.90;;;5.82;;
78848;SDS011;68197;41.864;21.942;2023-04-05T02:21:53;7.25;;;5.05;;
78848;SDS011;68197;41.864;21.942;2023-04-05T02:24:20;6.70;;;5.18;;
78848;SDS011;68197;41.864;21.942;2023-04-05T02:26:46;7.40;;;5.88;;
78848;SDS011;68197;41.864;21.942;2023-04-05T02:29:12;6.93;;;5.93;;
78848;SDS011;68197;41.864;21.942;2023-04-05T02:31:38;6.45;;;4.93;;
78848;SDS011;68197;41.864;21.942;2023-04-05T02:34:04;5.72;;;4.78;;
78848;SDS011;68197;41.864;21.942;2023-04-05T02:36:33;7.60;;;5.32;;
78848;SDS011;68197;41.864;21.942;2023-04-05T02:38:59;8.63;;;5.80;;
78848;SDS011;68197;41.864;21.942;2023-04-05T02:41:25;6.32;;;4.90;;
78848;SDS011;68197;41.864;21.942;2023-04-05T02:43:51;6.05;;;4.97;;
78848;SDS011;68197;41.864;21.942;2023-04-05T02:46:17;6.57;;;5.22;;
78848;SDS011;68197;41.864;21.942;2023-04-05T02:48:44;7.05;;;5.40;;
78848;SDS011;68197;41.864;21.942;2023-04-05T02:51:10;6.15;;;4.88;;
78848;SDS011;68197;41.864;21.942;2023-04-05T02:53:36;6.25;;;5.25;;
78848;SDS011;68197;41.864;21.942;2023-04-05T02:56:02;6.78;;;5.20;;
78848;SDS011;68197;41.864;21.942;2023-04-05T02:58:29;6.75;;;5.00;;
78848;SDS011;68197;41.864;21.942;2023-04-05T03:00:55;7.07;;;5.53;;
78848;SDS011;68197;41.864;21.942;2023-04-05T03:03:21;7.60;;;5.60;;
78848;SDS011;68197;41.864;21.942;2023-04-05T03:05:48;7.00;;;5.43;;
78848;SDS011;68197;41.864;21.942;2023-04-05T03:08:21;6.90;;;5.10;;
78848;SDS011;68197;41.864;21.942;2023-04-05T03:10:50;6.68;;;5.43;;
78848;SDS011;68197;41.864;21.942;2023-04-05T03:13:16;6.75;;;5.63;;
78848;SDS011;68197;41.864;21.942;2023-04-05T03:15:43;7.65;;;6.10;;
78848;SDS011;68197;41.864;21.942;2023-04-05T03:18:09;9.60;;;6.30;;
78848;SDS011;68197;41.864;21.942;2023-04-05T03:20:36;9.68;;;6.10;;
78848;SDS011;68197;41.864;21.942;2023-04-05T03:23:06;7.18;;;4.80;;
78848;SDS011;68197;41.864;21.942;2023-04-05T03:25:35;5.85;;;4.95;;
78848;SDS011;68197;41.864;21.942;2023-04-05T03:28:04;6.03;;;4.60;;
78848;SDS011;68197;41.864;21.942;2023-04-05T03:30:32;6.30;;;4.43;;
78848;SDS011;68197;41.864;21.942;2023-04-05T03:32:59;6.57;;;4.40;;
78848;SDS011;68197;41.864;21.942;2023-04-05T03:35:28;9.60;;;6.78;;
78848;SDS011;68197;41.864;21.942;2023-04-05T03:37:55;7.90;;;4.75;;
78848;SDS011;68197;41.864;21.942;2023-04-05T03:40:21;8.43;;;4.97;;
78848;SDS011;68197;41.864;21.942;2023-04-05T03:42:48;12.07;;;7.25;;
78848;SDS011;68197;41.864;21.942;2023-04-05T03:45:14;8.40;;;7.60;;
78848;SDS011;68197;41.864;21.942;2023-04-05T03:47:41;7.13;;;5.15;;
78848;SDS011;68197;41.864;21.942;2023-04-05T03:50:07;7.97;;;7.18;;
78848;SDS011;68197;41.864;21.942;2023-04-05T03:52:33;5.63;;;4.63;;
78848;SDS011;68197;41.864;21.942;2023-04-05T03:55:00;6.00;;;5.07;;
78848;SDS011;68197;41.864;21.942;2023-04-05T03:57:26;5.18;;;4.15;;
78848;SDS011;68197;41.864;21.942;2023-04-05T03:59:53;6.88;;;4.35;;
78848;SDS011;68197;41.864;21.942;2023-04-05T04:02:19;5.97;;;5.18;;
78848;SDS011;68197;41.864;21.942;2023-04-05T04:04:46;6.57;;;4.70;;
78848;SDS011;68197;41.864;21.942;2023-04-05T04:07:12;6.28;;;5.20;;
78848;SDS011;68197;41.864;21.942;2023-04-05T04:09:39;6.00;;;4.80;;
78848;SDS011;68197;41.864;21.942;2023-04-05T04:12:05;5.25;;;4.43;;
78848;SDS011;68197;41.864;21.942;2023-04-05T04:14:33;6.90;;;6.30;;
78848;SDS011;68197;41.864;21.942;2023-04-05T04:16:59;5.15;;;4.28;;
78848;SDS011;68197;41.864;21.942;2023-04-05T04:19:25;5.93;;;4.03;;
78848;SDS011;68197;41.864;21.942;2023-04-05T04:21:51;4.97;;;4.43;;
78848;SDS011;68197;41.864;21.942;2023-04-05T04:24:20;5.95;;;4.28;;
78848;SDS011;68197;41.864;21.942;2023-04-05T04:26:46;5.40;;;4.57;;
78848;SDS011;68197;41.864;21.942;2023-04-05T04:29:13;5.53;;;4.30;;
78848;SDS011;68197;41.864;21.942;2023-04-05T04:31:42;6.82;;;5.35;;
78848;SDS011;68197;41.864;21.942;2023-04-05T04:34:13;6.53;;;5.82;;
78848;SDS011;68197;41.864;21.942;2023-04-05T04:36:42;6.78;;;5.72;;
78848;SDS011;68197;41.864;21.942;2023-04-05T04:39:10;6.05;;;5.30;;
78848;SDS011;68197;41.864;21.942;2023-04-05T04:41:37;6.88;;;5.10;;
78848;SDS011;68197;41.864;21.942;2023-04-05T04:44:08;5.38;;;4.80;;
78848;SDS011;68197;41.864;21.942;2023-04-05T04:46:38;6.53;;;4.45;;
78848;SDS011;68197;41.864;21.942;2023-04-05T04:49:10;6.90;;;4.85;;
78848;SDS011;68197;41.864;21.942;2023-04-05T04:51:37;7.68;;;5.43;;
78848;SDS011;68197;41.864;21.942;2023-04-05T04:54:03;8.05;;;6.25;;
78848;SDS011;68197;41.864;21.942;2023-04-05T04:56:30;6.55;;;4.93;;
78848;SDS011;68197;41.864;21.942;2023-04-05T04:58:56;5.75;;;5.00;;
78848;SDS011;68197;41.864;21.942;2023-04-05T05:01:22;5.80;;;4.30;;
78848;SDS011;68197;41.864;21.942;2023-04-05T05:03:49;7.47;;;5.68;;
78848;SDS011;68197;41.864;21.942;2023-04-05T05:06:16;6.47;;;4.68;;
78848;SDS011;68197;41.864;21.942;2023-04-05T05:08:43;6.95;;;5.35;;
78848;SDS011;68197;41.864;21.942;2023-04-05T05:11:11;6.53;;;4.55;;
78848;SDS011;68197;41.864;21.942;2023-04-05T05:13:37;8.40;;;6.50;;
78848;SDS011;68197;41.864;21.942;2023-04-05T05:16:03;7.90;;;5.78;;
78848;SDS011;68197;41.864;21.942;2023-04-05T05:18:31;6.72;;;5.70;;
78848;SDS011;68197;41.864;21.942;2023-04-05T05:20:57;8.63;;;6.22;;
78848;SDS011;68197;41.864;21.942;2023-04-05T05:23:23;6.95;;;5.82;;
78848;SDS011;68197;41.864;21.942;2023-04-05T05:25:49;5.07;;;4.57;;
78848;SDS011;68197;41.864;21.942;2023-04-05T05:28:15;6.25;;;5.47;;
78848;SDS011;68197;41.864;21.942;2023-04-05T05:30:41;7.53;;;4.88;;
78848;SDS011;68197;41.864;21.942;2023-04-05T05:33:08;10.43;;;6.80;;
78848;SDS011;68197;41.864;21.942;2023-04-05T05:35:34;9.18;;;7.03;;
78848;SDS011;68197;41.864;21.942;2023-04-05T05:38:02;8.48;;;6.30;;
78848;SDS011;68197;41.864;21.942;2023-04-05T05:40:28;7.25;;;4.93;;
78848;SDS011;68197;41.864;21.942;2023-04-05T05:42:54;7.78;;;6.25;;
78848;SDS011;68197;41.864;21.942;2023-04-05T05:45:20;10.38;;;7.20;;
78848;SDS011;68197;41.864;21.942;2023-04-05T05:47:46;5.85;;;4.63;;
78848;SDS011;68197;41.864;21.942;2023-04-05T05:50:13;7.10;;;6.07;;
78848;SDS011;68197;41.864;21.942;2023-04-05T05:52:41;6.05;;;4.93;;
78848;SDS011;68197;41.864;21.942;2023-04-05T05:55:07;6.82;;;5.60;;
78848;SDS011;68197;41.864;21.942;2023-04-05T05:57:33;9.23;;;7.25;;
78848;SDS011;68197;41.864;21.942;2023-04-05T06:00:00;7.15;;;5.57;;
78848;SDS011;68197;41.864;21.942;2023-04-05T06:02:28;9.88;;;7.40;;
78848;SDS011;68197;41.864;21.942;2023-04-05T06:04:56;8.13;;;5.57;;
78848;SDS011;68197;41.864;21.942;2023-04-05T06:07:22;7.68;;;5.68;;
78848;SDS011;68197;41.864;21.942;2023-04-05T06:09:48;7.90;;;5.38;;
78848;SDS011;68197;41.864;21.942;2023-04-05T06:12:14;6.78;;;5.45;;
78848;SDS011;68197;41.864;21.942;2023-04-05T06:14:40;4.65;;;3.83;;
78848;SDS011;68197;41.864;21.942;2023-04-05T06:17:07;7.07;;;6.00;;
78848;SDS011;68197;41.864;21.942;2023-04-05T06:19:33;61.65;;;38.97;;
78848;SDS011;68197;41.864;21.942;2023-04-05T06:21:59;76.38;;;30.98;;
78848;SDS011;68197;41.864;21.942;2023-04-05T06:24:25;7.82;;;7.03;;
78848;SDS011;68197;41.864;21.942;2023-04-05T06:26:55;7.63;;;6.93;;
78848;SDS011;68197;41.864;21.942;2023-04-05T06:29:21;7.03;;;5.55;;
78848;SDS011;68197;41.864;21.942;2023-04-05T06:31:48;6.40;;;4.80;;
78848;SDS011;68197;41.864;21.942;2023-04-05T06:34:14;7.05;;;4.75;;
78848;SDS011;68197;41.864;21.942;2023-04-05T06:36:40;5.50;;;4.63;;
78848;SDS011;68197;41.864;21.942;2023-04-05T06:39:07;7.00;;;5.30;;
78848;SDS011;68197;41.864;21.942;2023-04-05T06:41:33;7.05;;;5.70;;
78848;SDS011;68197;41.864;21.942;2023-04-05T06:43:59;6.03;;;4.57;;
78848;SDS011;68197;41.864;21.942;2023-04-05T06:46:25;8.10;;;6.13;;
78848;SDS011;68197;41.864;21.942;2023-04-05T06:48:51;7.97;;;5.28;;
78848;SDS011;68197;41.864;21.942;2023-04-05T06:51:18;8.00;;;5.78;;
78848;SDS011;68197;41.864;21.942;2023-04-05T06:53:44;5.00;;;3.95;;
78848;SDS011;68197;41.864;21.942;2023-04-05T06:56:11;7.25;;;6.35;;
78848;SDS011;68197;41.864;21.942;2023-04-05T06:58:37;8.80;;;6.38;;
78848;SDS011;68197;41.864;21.942;2023-04-05T07:01:03;7.82;;;5.45;;
78848;SDS011;68197;41.864;21.942;2023-04-05T07:03:29;9.57;;;7.47;;
78848;SDS011;68197;41.864;21.942;2023-04-05T07:05:57;7.72;;;6.13;;
78848;SDS011;68197;41.864;21.942;2023-04-05T07:08:23;7.80;;;4.78;;
78848;SDS011;68197;41.864;21.942;2023-04-05T07:10:50;5.10;;;4.30;;
78848;SDS011;68197;41.864;21.942;2023-04-05T07:13:16;7.72;;;5.53;;
78848;SDS011;68197;41.864;21.942;2023-04-05T07:15:43;6.15;;;4.50;;
78848;SDS011;68197;41.864;21.942;2023-04-05T07:18:09;7.43;;;5.03;;
78848;SDS011;68197;41.864;21.942;2023-04-05T07:20:36;7.60;;;6.00;;
78848;SDS011;68197;41.864;21.942;2023-04-05T07:23:02;7.30;;;4.95;;
78848;SDS011;68197;41.864;21.942;2023-04-05T07:25:30;7.75;;;6.07;;
78848;SDS011;68197;41.864;21.942;2023-04-05T07:27:56;10.35;;;8.77;;
78848;SDS011;68197;41.864;21.942;2023-04-05T07:30:22;8.82;;;6.95;;
78848;SDS011;68197;41.864;21.942;2023-04-05T07:32:48;8.93;;;6.05;;
78848;SDS011;68197;41.864;21.942;2023-04-05T07:35:15;8.13;;;5.90;;
78848;SDS011;68197;41.864;21.942;2023-04-05T07:37:41;7.65;;;5.97;;
78848;SDS011;68197;41.864;21.942;2023-04-05T07:40:07;5.93;;;3.88;;
78848;SDS011;68197;41.864;21.942;2023-04-05T07:42:35;7.93;;;5.68;;
78848;SDS011;68197;41.864;21.942;2023-04-05T07:45:01;6.70;;;4.78;;
78848;SDS011;68197;41.864;21.942;2023-04-05T07:47:27;6.50;;;4.90;;
78848;SDS011;68197;41.864;21.942;2023-04-05T07:49:53;8.63;;;6.75;;
78848;SDS011;68197;41.864;21.942;2023-04-05T07:52:19;4.15;;;3.67;;
78848;SDS011;68197;41.864;21.942;2023-04-05T07:54:45;9.13;;;6.50;;
78848;SDS011;68197;41.864;21.942;2023-04-05T07:57:18;8.18;;;6.25;;
78848;SDS011;68197;41.864;21.942;2023-04-05T07:59:44;4.88;;;4.40;;
78848;SDS011;68197;41.864;21.942;2023-04-05T08:02:11;8.65;;;5.97;;
78848;SDS011;68197;41.864;21.942;2023-04-05T08:04:38;8.05;;;5.82;;
78848;SDS011;68197;41.864;21.942;2023-04-05T08:07:04;7.07;;;5.90;;
78848;SDS011;68197;41.864;21.942;2023-04-05T08:09:30;6.65;;;5.60;;
78848;SDS011;68197;41.864;21.942;2023-04-05T08:11:56;4.72;;;4.05;;
78848;SDS011;68197;41.864;21.942;2023-04-05T08:14:22;6.53;;;4.35;;
78848;SDS011;68197;41.864;21.942;2023-04-05T08:16:48;6.07;;;4.72;;
78848;SDS011;68197;41.864;21.942;2023-04-05T08:19:15;5.10;;;3.95;;
78848;SDS011;68197;41.864;21.942;2023-04-05T08:21:42;6.53;;;4.70;;
78848;SDS011;68197;41.864;21.942;2023-04-05T08:24:08;6.25;;;4.80;;
78848;SDS011;68197;41.864;21.942;2023-04-05T08:26:34;4.50;;;3.60;;
78848;SDS011;68197;41.864;21.942;2023-04-05T08:29:00;7.80;;;5.90;;
78848;SDS011;68197;41.864;21.942;2023-04-05T08:31:26;7.47;;;5.43;;
78848;SDS011;68197;41.864;21.942;2023-04-05T08:33:52;5.55;;;4.30;;
78848;SDS011;68197;41.864;21.942;2023-04-05T08:36:18;6.75;;;5.03;;
78848;SDS011;68197;41.864;21.942;2023-04-05T08:38:44;7.63;;;4.85;;
78848;SDS011;68197;41.864;21.942;2023-04-05T08:41:17;6.93;;;5.30;;
78848;SDS011;68197;41.864;21.942;2023-04-05T08:46:13;7.55;;;5.47;;
78848;SDS011;68197;41.864;21.942;2023-04-05T08:48:40;5.32;;;4.18;;
78848;SDS011;68197;41.864;21.942;2023-04-05T08:51:06;5.10;;;4.57;;
78848;SDS011;68197;41.864;21.942;2023-04-05T08:53:33;5.60;;;5.00;;
78848;SDS011;68197;41.864;21.942;2023-04-05T08:56:00;11.52;;;7.57;;
78848;SDS011;68197;41.864;21.942;2023-04-05T08:58:27;6.43;;;5.40;;
78848;SDS011;68197;41.864;21.942;2023-04-05T09:00:54;8.05;;;6.65;;
78848;SDS011;68197;41.864;21.942;2023-04-05T09:03:21;6.80;;;5.43;;
78848;SDS011;68197;41.864;21.942;2023-04-05T09:05:52;7.15;;;5.40;;
78848;SDS011;68197;41.864;21.942;2023-04-05T09:08:18;6.63;;;5.10;;
78848;SDS011;68197;41.864;21.942;2023-04-05T09:10:50;6.13;;;5.03;;
78848;SDS011;68197;41.864;21.942;2023-04-05T09:13:17;7.82;;;6.22;;
78848;SDS011;68197;41.864;21.942;2023-04-05T09:15:43;5.35;;;4.25;;
78848;SDS011;68197;41.864;21.942;2023-04-05T09:18:10;8.80;;;5.30;;
78848;SDS011;68197;41.864;21.942;2023-04-05T09:20:37;10.02;;;6.57;;
78848;SDS011;68197;41.864;21.942;2023-04-05T09:23:03;9.85;;;7.00;;
78848;SDS011;68197;41.864;21.942;2023-04-05T09:25:47;10.30;;;7.68;;
78848;SDS011;68197;41.864;21.942;2023-04-05T09:28:16;8.20;;;6.82;;
78848;SDS011;68197;41.864;21.942;2023-04-05T09:30:45;6.88;;;5.88;;
78848;SDS011;68197;41.864;21.942;2023-04-05T09:33:14;8.05;;;5.22;;
78848;SDS011;68197;41.864;21.942;2023-04-05T09:35:40;6.10;;;4.85;;
78848;SDS011;68197;41.864;21.942;2023-04-05T09:38:06;8.32;;;5.63;;
78848;SDS011;68197;41.864;21.942;2023-04-05T09:40:43;6.32;;;4.45;;
78848;SDS011;68197;41.864;21.942;2023-04-05T09:43:12;6.60;;;4.55;;
78848;SDS011;68197;41.864;21.942;2023-04-05T09:45:41;9.73;;;8.75;;
78848;SDS011;68197;41.864;21.942;2023-04-05T09:48:08;10.20;;;6.82;;
78848;SDS011;68197;41.864;21.942;2023-04-05T09:50:34;6.88;;;4.95;;
78848;SDS011;68197;41.864;21.942;2023-04-05T09:53:11;10.95;;;7.75;;
78848;SDS011;68197;41.864;21.942;2023-04-05T09:55:42;7.95;;;5.82;;
78848;SDS011;68197;41.864;21.942;2023-04-05T09:58:12;11.60;;;7.50;;
78848;SDS011;68197;41.864;21.942;2023-04-05T10:03:20;8.70;;;6.28;;
78848;SDS011;68197;41.864;21.942;2023-04-05T10:05:56;8.73;;;6.20;;
78848;SDS011;68197;41.864;21.942;2023-04-05T10:08:22;7.97;;;6.35;;
78848;SDS011;68197;41.864;21.942;2023-04-05T10:10:49;6.03;;;4.85;;
78848;SDS011;68197;41.864;21.942;2023-04-05T10:13:18;6.75;;;5.25;;
78848;SDS011;68197;41.864;21.942;2023-04-05T10:15:46;5.50;;;4.25;;
78848;SDS011;68197;41.864;21.942;2023-04-05T10:18:16;6.20;;;5.18;;
78848;SDS011;68197;41.864;21.942;2023-04-05T10:20:43;5.57;;;3.70;;
78848;SDS011;68197;41.864;21.942;2023-04-05T10:23:30;6.20;;;5.10;;
78848;SDS011;68197;41.864;21.942;2023-04-05T10:26:03;8.48;;;7.70;;
78848;SDS011;68197;41.864;21.942;2023-04-05T10:28:33;6.35;;;5.38;;
78848;SDS011;68197;41.864;21.942;2023-04-05T10:33:29;5.95;;;5.35;;
78848;SDS011;68197;41.864;21.942;2023-04-05T10:36:02;6.80;;;5.60;;
78848;SDS011;68197;41.864;21.942;2023-04-05T10:39:16;7.20;;;5.57;;
78848;SDS011;68197;41.864;21.942;2023-04-05T10:41:21;6.82;;;5.65;;
78848;SDS011;68197;41.864;21.942;2023-04-05T10:43:48;6.35;;;5.28;;
78848;SDS011;68197;41.864;21.942;2023-04-05T10:46:17;7.97;;;6.40;;
78848;SDS011;68197;41.864;21.942;2023-04-05T10:51:30;7.95;;;6.05;;
78848;SDS011;68197;41.864;21.942;2023-04-05T10:54:00;6.15;;;4.03;;
78848;SDS011;68197;41.864;21.942;2023-04-05T10:56:27;5.90;;;5.30;;
78848;SDS011;68197;41.864;21.942;2023-04-05T10:58:53;5.30;;;4.53;;
78848;SDS011;68197;41.864;21.942;2023-04-05T11:01:20;9.15;;;8.25;;
78848;SDS011;68197;41.864;21.942;2023-04-05T11:03:49;7.57;;;5.82;;
78848;SDS011;68197;41.864;21.942;2023-04-05T11:06:23;9.13;;;6.05;;
78848;SDS011;68197;41.864;21.942;2023-04-05T11:08:51;5.20;;;3.83;;
78848;SDS011;68197;41.864;21.942;2023-04-05T11:11:18;5.72;;;5.13;;
78848;SDS011;68197;41.864;21.942;2023-04-05T11:13:47;5.25;;;4.43;;
78848;SDS011;68197;41.864;21.942;2023-04-05T11:16:13;6.63;;;5.28;;
78848;SDS011;68197;41.864;21.942;2023-04-05T11:18:44;5.85;;;4.32;;
78848;SDS011;68197;41.864;21.942;2023-04-05T11:21:11;11.07;;;9.43;;
78848;SDS011;68197;41.864;21.942;2023-04-05T11:26:31;9.23;;;7.15;;
78848;SDS011;68197;41.864;21.942;2023-04-05T11:28:57;12.98;;;8.43;;
78848;SDS011;68197;41.864;21.942;2023-04-05T11:31:23;8.55;;;6.63;;
78848;SDS011;68197;41.864;21.942;2023-04-05T11:33:57;7.13;;;5.20;;
78848;SDS011;68197;41.864;21.942;2023-04-05T11:36:28;8.98;;;6.88;;
78848;SDS011;68197;41.864;21.942;2023-04-05T11:41:40;9.10;;;6.47;;
78848;SDS011;68197;41.864;21.942;2023-04-05T11:44:09;11.95;;;10.60;;
78848;SDS011;68197;41.864;21.942;2023-04-05T11:46:38;12.43;;;8.80;;
78848;SDS011;68197;41.864;21.942;2023-04-05T11:49:05;11.52;;;8.57;;
78848;SDS011;68197;41.864;21.942;2023-04-05T11:51:32;8.30;;;7.05;;
78848;SDS011;68197;41.864;21.942;2023-04-05T11:53:58;12.32;;;9.05;;
78848;SDS011;68197;41.864;21.942;2023-04-05T11:56:24;12.98;;;8.70;;
78848;SDS011;68197;41.864;21.942;2023-04-05T11:58:50;10.77;;;8.25;;
78848;SDS011;68197;41.864;21.942;2023-04-05T12:01:16;12.18;;;8.32;;
78848;SDS011;68197;41.864;21.942;2023-04-05T12:03:42;9.88;;;7.25;;
78848;SDS011;68197;41.864;21.942;2023-04-05T12:06:08;13.30;;;10.48;;
78848;SDS011;68197;41.864;21.942;2023-04-05T12:08:42;12.98;;;10.55;;
78848;SDS011;68197;41.864;21.942;2023-04-05T12:11:14;10.88;;;8.82;;
78848;SDS011;68197;41.864;21.942;2023-04-05T12:13:40;14.82;;;9.88;;
78848;SDS011;68197;41.864;21.942;2023-04-05T12:16:07;11.85;;;8.68;;
78848;SDS011;68197;41.864;21.942;2023-04-05T12:18:36;11.95;;;9.02;;
78848;SDS011;68197;41.864;21.942;2023-04-05T12:21:03;12.40;;;8.98;;
78848;SDS011;68197;41.864;21.942;2023-04-05T12:23:30;11.68;;;10.48;;
78848;SDS011;68197;41.864;21.942;2023-04-05T12:25:56;13.88;;;10.23;;
78848;SDS011;68197;41.864;21.942;2023-04-05T12:28:23;9.27;;;7.63;;
78848;SDS011;68197;41.864;21.942;2023-04-05T12:30:50;11.05;;;8.82;;
78848;SDS011;68197;41.864;21.942;2023-04-05T12:33:29;11.48;;;9.40;;
78848;SDS011;68197;41.864;21.942;2023-04-05T12:35:56;9.52;;;7.65;;
78848;SDS011;68197;41.864;21.942;2023-04-05T12:38:26;10.18;;;7.63;;
78848;SDS011;68197;41.864;21.942;2023-04-05T12:40:52;11.10;;;9.02;;
78848;SDS011;68197;41.864;21.942;2023-04-05T12:43:22;8.60;;;7.50;;
78848;SDS011;68197;41.864;21.942;2023-04-05T12:45:48;7.85;;;5.93;;
78848;SDS011;68197;41.864;21.942;2023-04-05T12:48:20;8.18;;;6.10;;
78848;SDS011;68197;41.864;21.942;2023-04-05T12:50:49;12.15;;;8.77;;
78848;SDS011;68197;41.864;21.942;2023-04-05T12:53:17;7.22;;;5.90;;
78848;SDS011;68197;41.864;21.942;2023-04-05T12:55:48;7.50;;;6.70;;
78848;SDS011;68197;41.864;21.942;2023-04-05T12:58:15;11.82;;;9.73;;
78848;SDS011;68197;41.864;21.942;2023-04-05T13:00:41;9.88;;;7.53;;
78848;SDS011;68197;41.864;21.942;2023-04-05T13:03:14;9.63;;;6.63;;
78848;SDS011;68197;41.864;21.942;2023-04-05T13:05:41;11.52;;;8.80;;
78848;SDS011;68197;41.864;21.942;2023-04-05T13:08:07;11.30;;;9.20;;
78848;SDS011;68197;41.864;21.942;2023-04-05T13:10:33;13.35;;;9.68;;
78848;SDS011;68197;41.864;21.942;2023-04-05T13:12:59;11.07;;;7.90;;
78848;SDS011;68197;41.864;21.942;2023-04-05T13:15:25;10.93;;;9.60;;
78848;SDS011;68197;41.864;21.942;2023-04-05T13:17:51;11.15;;;8.85;;
78848;SDS011;68197;41.864;21.942;2023-04-05T13:20:19;17.50;;;12.85;;
78848;SDS011;68197;41.864;21.942;2023-04-05T13:22:45;12.02;;;9.65;;
78848;SDS011;68197;41.864;21.942;2023-04-05T13:25:12;11.50;;;9.52;;
78848;SDS011;68197;41.864;21.942;2023-04-05T13:27:38;10.32;;;8.80;;
78848;SDS011;68197;41.864;21.942;2023-04-05T13:30:05;12.85;;;10.70;;
78848;SDS011;68197;41.864;21.942;2023-04-05T13:32:31;9.65;;;7.65;;
78848;SDS011;68197;41.864;21.942;2023-04-05T13:34:58;11.55;;;9.75;;
78848;SDS011;68197;41.864;21.942;2023-04-05T13:37:24;12.00;;;9.63;;
78848;SDS011;68197;41.864;21.942;2023-04-05T13:39:50;19.23;;;12.82;;
78848;SDS011;68197;41.864;21.942;2023-04-05T13:42:16;19.13;;;14.50;;
78848;SDS011;68197;41.864;21.942;2023-04-05T13:44:42;10.35;;;8.43;;
78848;SDS011;68197;41.864;21.942;2023-04-05T13:47:09;20.42;;;13.70;;
78848;SDS011;68197;41.864;21.942;2023-04-05T13:49:35;14.90;;;10.88;;
78848;SDS011;68197;41.864;21.942;2023-04-05T13:52:01;14.43;;;10.13;;
78848;SDS011;68197;41.864;21.942;2023-04-05T13:54:27;15.07;;;12.82;;
78848;SDS011;68197;41.864;21.942;2023-04-05T13:56:53;11.50;;;9.77;;
78848;SDS011;68197;41.864;21.942;2023-04-05T13:59:21;14.25;;;11.23;;
78848;SDS011;68197;41.864;21.942;2023-04-05T14:01:47;9.20;;;7.43;;
78848;SDS011;68197;41.864;21.942;2023-04-05T14:04:14;11.60;;;9.60;;
78848;SDS011;68197;41.864;21.942;2023-04-05T14:06:40;12.68;;;9.25;;
78848;SDS011;68197;41.864;21.942;2023-04-05T14:09:06;10.32;;;9.00;;
78848;SDS011;68197;41.864;21.942;2023-04-05T14:11:33;13.90;;;9.88;;
78848;SDS011;68197;41.864;21.942;2023-04-05T14:14:00;17.67;;;13.02;;
78848;SDS011;68197;41.864;21.942;2023-04-05T14:16:26;15.43;;;11.50;;
78848;SDS011;68197;41.864;21.942;2023-04-05T14:18:52;10.05;;;8.23;;
78848;SDS011;68197;41.864;21.942;2023-04-05T14:21:18;16.98;;;13.65;;
78848;SDS011;68197;41.864;21.942;2023-04-05T14:23:45;16.02;;;12.25;;
78848;SDS011;68197;41.864;21.942;2023-04-05T14:26:11;14.10;;;11.07;;
78848;SDS011;68197;41.864;21.942;2023-04-05T14:28:37;16.38;;;12.27;;
78848;SDS011;68197;41.864;21.942;2023-04-05T14:31:04;14.15;;;10.05;;
78848;SDS011;68197;41.864;21.942;2023-04-05T14:33:30;11.10;;;8.68;;
78848;SDS011;68197;41.864;21.942;2023-04-05T14:35:56;19.98;;;15.00;;
78848;SDS011;68197;41.864;21.942;2023-04-05T14:38:22;17.85;;;12.48;;
78848;SDS011;68197;41.864;21.942;2023-04-05T14:40:49;12.57;;;9.60;;
78848;SDS011;68197;41.864;21.942;2023-04-05T14:43:15;15.75;;;13.48;;
78848;SDS011;68197;41.864;21.942;2023-04-05T14:45:41;18.77;;;14.07;;
78848;SDS011;68197;41.864;21.942;2023-04-05T14:48:07;17.88;;;12.73;;
78848;SDS011;68197;41.864;21.942;2023-04-05T14:50:33;7.93;;;7.03;;
78848;SDS011;68197;41.864;21.942;2023-04-05T14:53:00;10.40;;;9.05;;
78848;SDS011;68197;41.864;21.942;2023-04-05T14:55:26;12.95;;;9.82;;
78848;SDS011;68197;41.864;21.942;2023-04-05T14:57:53;10.07;;;8.15;;
78848;SDS011;68197;41.864;21.942;2023-04-05T15:00:19;19.50;;;12.43;;
78848;SDS011;68197;41.864;21.942;2023-04-05T15:02:45;20.38;;;13.70;;